Hanska, Minnesota
Current Conditions -  °F | °C
As of 12:14 AM on Thursday 29 Jan 2015 (Local Time) from KULM Reporting Station
Haze Haze  
Wind Chill: 23°   Ceiling: 500
Heat Index: 32°   Visibility: 1.7mi
Dew Point: 32°   Wind: 12mph
Humidity: 100%   Direction: 320°NW
Pressure: 29.91"   Gusts: NA
Location:  44.15°N, 94.49°W
Report Text: KULM 290614Z AUTO 32010KT 1 3/4SM BR OVC005 00/00 A2991 RMK AO2
Loading
Personal Weather Stations






























Interactive Weather Map New forecast layout! Learn more

10-Day Weather Forecast

Advertisements
Track Severe Weather on mobile